Pagrindinis puslapis
METAR-TAF:

METAR-TAF

Oro uostai :

Tirgu Murešas, Rumunija

platuma: 46-32N, ilguma: 024-32E, Aukštis: 308 m

Dabartinis oras

Ataskaita buvo paskelbta 27 minutes, ne 03:30 UTC
Vėjas 1 kt iš Pietų
Temperatūra 11°C
Drėgmė 94%
Slėgis 1008 hPa
Matomumas 10 km arba daugiau

METAR: LRTM 170330Z AUTO 19001KT 9999 NCD 11/10 Q1008

Laikas: 06:57 (03:57 UTC)

Prognozė

Ataskaita buvo paskelbta 1 valandą ir 57 minutes, ne 02:00 UTC
Prognozė galioja nuo 17 metu 03 UTC su 17 metu 12 UTC
Vėjas 4 kt nuo kintamojo kryptimis
Matomumas 10 km arba daugiau
nėra debesų žemiau 1500 m ir nėra kamuolinių lietaus debesų
Laikinai
nuo 17 metu 03 UTC su 17 metu 04 UTC
Matomumas: 3000 m
rūkana

TAF: LRTM 170200Z 1703/1712 VRB04KT CAVOK TEMPO 1703/1704 3000 BR

Orai ataskaitas ir orų prognozės (METAR, TAF).

turimą stotys yra geltonos ir raudonos taškus žemėlapyje.

Perkelti pele per norėdami pamatyti stoties vardą.

Tada spustelėkite, norėdami matyti oro stebėjimo ir prognozės.

Norėdami pakeisti žemėlapį: spustelėkite ant žalios mygtukų su juodo kryžiaus žemyn,; žalią mygtuką su brūkšneliu, jei norite nutolinti; arba žalių rodyklių gretimoms žemėlapius.


METAR-TAF: